Time;durP1;ratioP1;P1;durP2;ratioP2;P2;SDS_P1;SDS_P2;PMS_P1;PMS_P2;Temp;Humidity;BMP_temperature;BMP_pressure;BME280_temperature;BME280_humidity;BME280_pressure;Samples;Min_cycle;Max_cycle;Signal;HPM_P1;HPM_P2
2023/08/25 00:00:28;;;;;;;0.28;0.17;;;;;;;19.75;100.00;100288.50;5037874;28;20052;-49
2023/08/25 00:02:53;;;;;;;2.65;0.20;;;;;;;19.68;100.00;100295.16;5036946;28;20090;-46
2023/08/25 00:05:18;;;;;;;2.38;0.25;;;;;;;19.64;100.00;100294.81;5037433;28;20033;-44
2023/08/25 00:07:44;;;;;;;0.50;0.28;;;;;;;19.60;100.00;100288.34;5036598;28;20055;-45
2023/08/25 00:10:09;;;;;;;3.22;0.40;;;;;;;19.60;100.00;100286.47;5032948;28;20060;-46
2023/08/25 00:12:35;;;;;;;0.85;0.20;;;;;;;19.45;100.00;100288.19;5042228;28;20025;-45
2023/08/25 00:15:00;;;;;;;4.00;0.90;;;;;;;19.46;100.00;100290.63;5045955;28;20037;-46
2023/08/25 00:17:25;;;;;;;1.25;0.55;;;;;;;19.38;100.00;100285.69;5035747;28;20595;-46
2023/08/25 00:19:51;;;;;;;7.30;1.00;;;;;;;19.38;100.00;100289.19;5038821;28;20032;-47
2023/08/25 00:22:17;;;;;;;1.38;0.35;;;;;;;19.43;100.00;100293.00;5039375;28;20041;-47
2023/08/25 00:24:42;;;;;;;2.17;0.20;;;;;;;19.42;100.00;100302.16;5043154;28;20025;-46
2023/08/25 00:27:08;;;;;;;4.03;0.10;;;;;;;19.32;100.00;100292.09;5037687;28;20036;-45
2023/08/25 00:29:33;;;;;;;2.70;0.40;;;;;;;19.27;100.00;100290.16;5039252;28;20025;-49
2023/08/25 00:31:59;;;;;;;0.10;0.00;;;;;;;19.28;100.00;100290.97;5036730;28;20040;-44
2023/08/25 00:34:24;;;;;;;1.08;0.32;;;;;;;19.15;100.00;100289.50;5031844;28;20111;-44
2023/08/25 00:36:49;;;;;;;0.45;0.10;;;;;;;19.18;100.00;100291.69;5032858;28;20047;-46
2023/08/25 00:39:15;;;;;;;0.90;0.10;;;;;;;18.86;100.00;100287.03;5035143;28;20119;-44
2023/08/25 00:41:40;;;;;;;0.75;0.10;;;;;;;18.63;100.00;100281.88;5033052;28;20029;-45
2023/08/25 00:44:06;;;;;;;0.10;0.10;;;;;;;18.82;100.00;100285.91;5035859;28;20065;-44
2023/08/25 00:46:31;;;;;;;0.10;0.00;;;;;;;18.81;100.00;100283.47;5037278;28;20039;-43
2023/08/25 00:48:57;;;;;;;4.47;0.32;;;;;;;18.81;100.00;100284.28;5035390;28;20123;-45
2023/08/25 00:51:25;;;;;;;4.30;0.05;;;;;;;18.69;100.00;100287.06;5037807;28;20067;-44
2023/08/25 00:53:50;;;;;;;1.30;0.00;;;;;;;18.49;100.00;100286.81;5031194;28;20225;-45
2023/08/25 00:56:17;;;;;;;0.20;0.20;;;;;;;18.42;100.00;100291.53;5036734;28;20039;-45
2023/08/25 00:58:43;;;;;;;0.75;0.00;;;;;;;18.40;100.00;100288.28;5032567;28;20072;-47
2023/08/25 01:01:09;;;;;;;0.60;0.40;;;;;;;18.40;100.00;100290.97;5032863;28;20119;-44
2023/08/25 01:03:38;;;;;;;0.65;0.30;;;;;;;18.39;100.00;100287.47;5036634;28;20033;-46
2023/08/25 01:06:03;;;;;;;1.55;0.55;;;;;;;18.38;100.00;100291.22;5039194;28;20159;-45
2023/08/25 01:08:29;;;;;;;0.28;0.28;;;;;;;18.24;100.00;100296.09;5024329;28;20029;-43
2023/08/25 01:11:07;;;;;;;0.77;0.00;;;;;;;18.25;100.00;100288.84;5034652;28;20509;-47
2023/08/25 01:13:56;;;;;;;0.77;0.13;;;;;;;18.32;100.00;100286.81;5037638;28;20040;-46
2023/08/25 01:16:29;;;;;;;0.85;0.03;;;;;;;18.22;100.00;100292.03;5035481;28;20032;-48
2023/08/25 01:18:56;;;;;;;0.00;0.00;;;;;;;18.21;100.00;100293.13;5038260;28;20036;-43
2023/08/25 01:21:22;;;;;;;0.10;0.03;;;;;;;18.08;100.00;100287.03;5031353;28;20037;-44
2023/08/25 01:24:02;;;;;;;1.50;0.00;;;;;;;17.96;100.00;100291.66;5039256;28;20432;-47
2023/08/25 01:26:29;;;;;;;0.50;0.00;;;;;;;18.06;100.00;100286.44;5036209;28;20028;-46
2023/08/25 01:28:54;;;;;;;0.10;0.00;;;;;;;18.04;100.00;100287.75;5031296;28;20622;-44
2023/08/25 01:31:20;;;;;;;0.00;0.00;;;;;;;18.00;100.00;100284.75;5036984;28;20029;-46
2023/08/25 01:33:47;;;;;;;2.50;1.25;;;;;;;17.83;100.00;100278.56;5029714;28;20159;-46
2023/08/25 01:36:23;;;;;;;0.52;0.32;;;;;;;17.76;100.00;100281.41;5034680;28;20040;-43
2023/08/25 01:39:00;;;;;;;1.80;0.20;;;;;;;17.63;100.00;100277.16;5033604;28;20544;-47
2023/08/25 01:41:31;;;;;;;0.80;0.45;;;;;;;17.73;100.00;100279.19;5036930;28;20370;-43
2023/08/25 01:43:59;;;;;;;0.95;0.77;;;;;;;17.88;100.00;100271.41;5034720;28;20021;-46
2023/08/25 01:46:27;;;;;;;0.20;0.20;;;;;;;17.35;100.00;100283.38;5043235;28;20033;-46
2023/08/25 01:48:56;;;;;;;0.00;0.00;;;;;;;17.60;100.00;100276.81;5034364;28;20379;-46
2023/08/25 01:51:22;;;;;;;1.90;0.00;;;;;;;17.48;100.00;100284.94;5036558;28;20037;-47
2023/08/25 01:53:53;;;;;;;0.20;0.15;;;;;;;17.33;100.00;100284.66;5035220;28;20026;-47
2023/08/25 01:56:19;;;;;;;0.38;0.00;;;;;;;17.38;100.00;100284.75;5035094;28;20064;-46
2023/08/25 01:58:44;;;;;;;7.40;0.22;;;;;;;17.35;100.00;100290.59;5037346;28;20528;-45
2023/08/25 02:01:09;;;;;;;0.22;0.20;;;;;;;17.32;100.00;100285.69;5037018;28;20126;-43
2023/08/25 02:03:35;;;;;;;0.00;0.00;;;;;;;17.29;100.00;100294.22;5028466;28;20136;-46
2023/08/25 02:06:00;;;;;;;0.75;0.22;;;;;;;17.17;100.00;100294.28;5029124;28;20037;-51
2023/08/25 02:08:26;;;;;;;2.28;0.00;;;;;;;17.14;100.00;100292.06;5035827;28;20033;-43
2023/08/25 02:10:52;;;;;;;0.22;0.00;;;;;;;17.13;100.00;100290.44;5040296;28;20036;-44
2023/08/25 02:13:17;;;;;;;3.92;0.00;;;;;;;17.10;100.00;100291.75;5037372;28;20048;-43
2023/08/25 02:15:47;;;;;;;0.88;0.00;;;;;;;17.15;100.00;100294.53;5032315;28;20474;-45
2023/08/25 02:18:12;;;;;;;1.35;0.10;;;;;;;17.11;100.00;100290.69;5031575;28;20051;-46
2023/08/25 02:20:39;;;;;;;2.08;0.40;;;;;;;17.20;100.00;100283.91;5035648;28;20385;-45
2023/08/25 02:23:04;;;;;;;1.98;0.10;;;;;;;17.22;100.00;100287.16;5033284;28;20474;-47
2023/08/25 02:25:30;;;;;;;0.20;0.00;;;;;;;17.18;100.00;100277.97;5038387;28;20080;-48
2023/08/25 02:27:56;;;;;;;0.63;0.20;;;;;;;17.12;100.00;100278.94;5032337;28;20033;-48
2023/08/25 02:30:22;;;;;;;1.10;0.00;;;;;;;17.18;100.00;100286.00;5034984;28;20486;-44
2023/08/25 02:32:47;;;;;;;1.35;0.00;;;;;;;17.20;100.00;100285.78;5039772;28;20025;-45
2023/08/25 02:35:13;;;;;;;0.20;0.20;;;;;;;16.92;100.00;100289.25;5032793;28;20870;-43
2023/08/25 02:38:07;;;;;;;0.00;0.00;;;;;;;16.97;100.00;100289.34;5033830;28;20473;-46
2023/08/25 02:40:33;;;;;;;0.00;0.00;;;;;;;16.99;100.00;100292.59;5038853;28;20036;-43
2023/08/25 02:43:01;;;;;;;0.50;0.00;;;;;;;17.00;100.00;100288.88;5041586;28;20418;-43
2023/08/25 02:45:27;;;;;;;0.95;0.00;;;;;;;16.95;100.00;100283.41;5049328;28;20064;-45
2023/08/25 02:47:53;;;;;;;1.45;0.10;;;;;;;16.94;100.00;100287.97;5036988;28;20085;-44
2023/08/25 02:50:19;;;;;;;3.03;0.20;;;;;;;16.91;100.00;100287.59;5041037;28;20298;-44
2023/08/25 02:52:45;;;;;;;0.10;0.10;;;;;;;16.81;100.00;100282.88;5037041;28;20551;-45
2023/08/25 02:55:11;;;;;;;0.65;0.08;;;;;;;16.76;100.00;100286.22;5042359;28;20045;-48
2023/08/25 02:57:37;;;;;;;8.80;0.17;;;;;;;16.75;100.00;100283.78;5031589;28;20033;-51
2023/08/25 03:00:04;;;;;;;6.22;0.10;;;;;;;16.77;100.00;100279.00;5029702;28;20031;-45
2023/08/25 03:02:30;;;;;;;0.17;0.00;;;;;;;16.75;100.00;100273.91;5037459;28;20045;-47
2023/08/25 03:04:55;;;;;;;0.35;0.00;;;;;;;16.78;100.00;100273.44;5043207;28;20025;-45
2023/08/25 03:07:20;;;;;;;0.60;0.08;;;;;;;16.79;100.00;100277.75;5039451;28;20032;-45
2023/08/25 03:09:46;;;;;;;0.68;0.00;;;;;;;16.70;100.00;100271.13;5043151;28;20490;-46
2023/08/25 03:12:11;;;;;;;1.27;0.00;;;;;;;16.78;100.00;100275.31;5037292;28;20034;-45
2023/08/25 03:14:36;;;;;;;2.33;0.88;;;;;;;16.83;100.00;100274.59;5040967;28;20106;-46
2023/08/25 03:17:01;;;;;;;0.90;0.00;;;;;;;16.80;100.00;100278.56;5035559;28;20116;-43
2023/08/25 03:19:27;;;;;;;0.43;0.00;;;;;;;16.73;100.00;100280.53;5045242;28;20578;-45
2023/08/25 03:21:52;;;;;;;0.10;0.00;;;;;;;16.67;100.00;100279.59;5022818;28;20125;-46
2023/08/25 03:24:17;;;;;;;2.80;0.00;;;;;;;16.23;100.00;100275.69;5037090;28;20098;-48
2023/08/25 03:26:43;;;;;;;2.65;0.47;;;;;;;16.47;100.00;100273.81;5041150;28;20045;-46
2023/08/25 03:29:08;;;;;;;0.65;0.00;;;;;;;16.41;100.00;100270.22;5033894;28;20128;-44
2023/08/25 03:31:35;;;;;;;1.13;0.08;;;;;;;16.41;100.00;100269.41;5033687;28;20503;-45
2023/08/25 03:34:00;;;;;;;0.22;0.00;;;;;;;16.26;100.00;100272.56;5041235;28;20056;-46
2023/08/25 03:36:25;;;;;;;0.25;0.00;;;;;;;16.17;100.00;100272.09;5036067;28;20134;-44
2023/08/25 03:38:51;;;;;;;1.98;0.00;;;;;;;16.06;100.00;100265.72;5036484;28;20040;-48
2023/08/25 03:41:17;;;;;;;1.65;0.22;;;;;;;15.96;100.00;100280.69;5039978;28;20033;-46
2023/08/25 03:43:42;;;;;;;0.38;0.10;;;;;;;15.77;100.00;100272.75;5039065;28;20029;-48
2023/08/25 03:46:07;;;;;;;2.30;0.00;;;;;;;15.82;100.00;100270.19;5039937;28;20119;-43
2023/08/25 03:48:33;;;;;;;0.00;0.00;;;;;;;15.84;100.00;100268.13;5046797;28;20456;-44
2023/08/25 03:50:58;;;;;;;2.60;0.00;;;;;;;15.77;100.00;100263.94;5038219;28;20036;-43
2023/08/25 03:53:23;;;;;;;1.42;0.52;;;;;;;15.64;100.00;100262.25;5033255;28;20036;-45
2023/08/25 03:55:49;;;;;;;6.43;1.08;;;;;;;15.59;100.00;100265.63;5035948;28;20025;-47
2023/08/25 03:58:14;;;;;;;0.57;0.22;;;;;;;15.61;100.00;100265.38;5044076;28;20039;-44
2023/08/25 04:00:39;;;;;;;0.10;0.00;;;;;;;15.53;100.00;100266.53;5039469;28;20029;-44
2023/08/25 04:03:06;;;;;;;1.45;0.00;;;;;;;15.40;100.00;100266.72;5041103;28;20123;-46
2023/08/25 04:05:32;;;;;;;0.45;0.45;;;;;;;15.26;100.00;100266.91;5036900;28;20040;-46
2023/08/25 04:07:57;;;;;;;0.00;0.00;;;;;;;15.22;100.00;100268.41;5033338;28;20037;-46
2023/08/25 04:10:23;;;;;;;0.75;0.00;;;;;;;15.03;100.00;100272.97;5039039;28;20098;-45
2023/08/25 04:12:49;;;;;;;0.10;0.00;;;;;;;15.01;100.00;100269.72;5041246;28;20020;-46
2023/08/25 04:15:14;;;;;;;0.77;0.20;;;;;;;14.96;100.00;100266.09;5032244;28;20060;-47
2023/08/25 04:17:39;;;;;;;2.30;0.10;;;;;;;15.05;100.00;100270.91;5039972;28;20039;-46
2023/08/25 04:20:06;;;;;;;0.38;0.00;;;;;;;15.15;100.00;100275.69;5030477;28;20029;-45
2023/08/25 04:22:31;;;;;;;0.88;0.00;;;;;;;15.14;100.00;100268.72;5034670;28;20840;-46
2023/08/25 04:24:56;;;;;;;0.45;0.10;;;;;;;15.17;100.00;100272.78;5036466;28;20036;-44
2023/08/25 04:27:22;;;;;;;0.00;0.00;;;;;;;15.17;100.00;100264.78;5034321;28;20037;-47
2023/08/25 04:29:48;;;;;;;1.00;0.00;;;;;;;15.23;100.00;100266.53;5035340;28;20037;-48
2023/08/25 04:32:15;;;;;;;1.60;0.00;;;;;;;15.17;100.00;100262.94;5035843;28;20517;-44
2023/08/25 04:34:40;;;;;;;0.00;0.00;;;;;;;15.15;100.00;100258.84;5040806;28;20583;-46
2023/08/25 04:37:06;;;;;;;0.85;0.10;;;;;;;15.10;100.00;100261.38;5036748;28;21628;-44
2023/08/25 04:39:31;;;;;;;1.20;0.00;;;;;;;15.00;100.00;100268.09;5031632;28;20227;-44
2023/08/25 04:41:56;;;;;;;1.20;0.00;;;;;;;14.89;100.00;100260.81;5040485;28;20029;-44
2023/08/25 04:44:22;;;;;;;0.30;0.00;;;;;;;14.81;100.00;100253.94;5034725;28;20029;-44
2023/08/25 04:46:47;;;;;;;0.10;0.00;;;;;;;14.81;100.00;100258.47;5030051;28;20041;-45
2023/08/25 04:49:12;;;;;;;0.00;0.00;;;;;;;14.78;100.00;100256.25;5030935;28;20141;-43
2023/08/25 04:51:39;;;;;;;0.00;0.00;;;;;;;14.76;100.00;100261.00;5035732;28;20063;-44
2023/08/25 04:54:04;;;;;;;0.00;0.00;;;;;;;14.81;100.00;100261.13;5036565;28;20125;-44
2023/08/25 04:56:30;;;;;;;2.30;0.00;;;;;;;14.86;100.00;100269.28;5028411;28;20587;-44
2023/08/25 04:58:55;;;;;;;0.00;0.00;;;;;;;14.93;100.00;100269.22;5020266;28;20044;-47
2023/08/25 05:01:20;;;;;;;7.55;0.43;;;;;;;15.03;100.00;100278.31;5034896;28;20021;-44
2023/08/25 05:03:46;;;;;;;5.70;0.13;;;;;;;15.11;100.00;100279.06;5036014;28;20025;-45
2023/08/25 05:06:11;;;;;;;0.05;0.05;;;;;;;15.07;100.00;100283.19;5036873;28;20492;-43
2023/08/25 05:08:36;;;;;;;0.00;0.00;;;;;;;14.96;100.00;100287.44;5031461;28;20090;-43
2023/08/25 05:11:03;;;;;;;1.40;0.10;;;;;;;14.92;100.00;100291.59;5035521;28;20588;-46
2023/08/25 05:13:28;;;;;;;0.35;0.32;;;;;;;14.87;100.00;100289.63;5035078;28;20549;-43
2023/08/25 05:15:54;;;;;;;1.85;0.00;;;;;;;14.85;100.00;100281.00;5034761;28;20029;-47
2023/08/25 05:18:19;;;;;;;0.45;0.00;;;;;;;14.78;100.00;100281.06;5037671;28;20033;-44
2023/08/25 05:20:44;;;;;;;0.00;0.00;;;;;;;14.80;100.00;100283.53;5031081;28;20025;-45
2023/08/25 05:23:10;;;;;;;1.10;0.00;;;;;;;14.79;100.00;100282.72;5057319;28;20122;-43
2023/08/25 05:25:35;;;;;;;0.10;0.10;;;;;;;14.76;100.00;100282.34;5037231;28;20480;-42
2023/08/25 05:28:00;;;;;;;0.10;0.00;;;;;;;14.66;100.00;100277.53;5038818;28;20171;-44
2023/08/25 05:30:26;;;;;;;0.20;0.05;;;;;;;14.72;100.00;100279.31;5038478;28;20021;-43
2023/08/25 05:32:51;;;;;;;0.00;0.00;;;;;;;14.75;100.00;100273.53;5038417;28;20561;-44
2023/08/25 05:35:16;;;;;;;0.00;0.00;;;;;;;14.75;100.00;100272.72;5039155;28;20405;-45
2023/08/25 05:37:42;;;;;;;0.80;0.05;;;;;;;14.73;100.00;100270.25;5034508;28;20037;-44
2023/08/25 05:40:08;;;;;;;1.45;1.27;;;;;;;14.80;100.00;100273.66;5036725;28;20033;-46
2023/08/25 05:42:35;;;;;;;0.00;0.00;;;;;;;14.86;100.00;100271.97;5038147;28;20048;-44
2023/08/25 05:45:01;;;;;;;1.05;0.10;;;;;;;14.87;100.00;100272.75;5026903;28;20083;-45
2023/08/25 05:47:26;;;;;;;0.60;0.45;;;;;;;14.77;100.00;100279.47;5038289;28;20033;-44
2023/08/25 05:49:51;;;;;;;1.15;0.03;;;;;;;14.71;100.00;100279.53;5037108;28;20517;-47
2023/08/25 05:52:17;;;;;;;1.08;0.30;;;;;;;14.63;100.00;100277.97;5036206;28;20027;-46
2023/08/25 05:54:42;;;;;;;0.10;0.00;;;;;;;14.59;100.00;100282.13;5033804;28;20037;-47
2023/08/25 05:57:08;;;;;;;0.00;0.00;;;;;;;14.65;100.00;100277.75;5037714;28;20044;-45
2023/08/25 05:59:33;;;;;;;1.73;0.00;;;;;;;14.75;100.00;100280.72;5036743;28;20529;-46
2023/08/25 06:01:58;;;;;;;0.13;0.00;;;;;;;14.80;100.00;100288.88;5036264;28;20196;-46
2023/08/25 06:04:23;;;;;;;8.52;2.30;;;;;;;14.79;100.00;100279.22;5031700;28;20067;-42
2023/08/25 06:06:49;;;;;;;0.00;0.00;;;;;;;14.79;100.00;100287.22;5041124;28;20195;-46
2023/08/25 06:09:17;;;;;;;1.85;0.20;;;;;;;14.89;100.00;100286.72;5037657;28;20037;-44
2023/08/25 06:11:43;;;;;;;0.20;0.00;;;;;;;14.88;100.00;100291.25;5041686;28;20494;-47
2023/08/25 06:14:09;;;;;;;0.00;0.00;;;;;;;14.84;100.00;100298.03;5031697;28;20036;-43
2023/08/25 06:16:37;;;;;;;0.30;0.00;;;;;;;14.83;100.00;100294.56;5035985;28;20029;-46
2023/08/25 06:19:03;;;;;;;2.83;0.10;;;;;;;14.89;100.00;100290.19;5049524;28;20060;-46
2023/08/25 06:21:29;;;;;;;0.32;0.10;;;;;;;14.87;100.00;100286.94;5038048;28;20071;-44
2023/08/25 06:23:54;;;;;;;0.05;0.00;;;;;;;14.87;100.00;100289.63;5040483;28;20063;-45
2023/08/25 06:26:19;;;;;;;0.35;0.00;;;;;;;14.84;100.00;100279.38;5037914;28;20036;-48
2023/08/25 06:28:45;;;;;;;0.13;0.00;;;;;;;14.85;100.00;100282.88;5047497;28;20116;-44
2023/08/25 06:31:10;;;;;;;0.03;0.00;;;;;;;14.81;100.00;100277.97;5034912;28;20033;-46
2023/08/25 06:33:36;;;;;;;3.05;0.28;;;;;;;14.71;100.00;100274.19;5035877;28;20506;-45
2023/08/25 06:36:01;;;;;;;1.30;0.55;;;;;;;14.72;100.00;100276.66;5039032;28;20039;-45
2023/08/25 06:38:27;;;;;;;0.25;0.10;;;;;;;14.81;100.00;100272.63;5040226;28;20455;-43
2023/08/25 06:40:52;;;;;;;1.38;0.20;;;;;;;14.87;100.00;100278.09;5035950;28;20047;-45
2023/08/25 06:43:17;;;;;;;0.35;0.05;;;;;;;14.92;100.00;100271.06;5039972;28;20026;-47
2023/08/25 06:45:43;;;;;;;0.25;0.03;;;;;;;15.00;100.00;100272.63;5042971;28;20493;-45
2023/08/25 06:48:08;;;;;;;0.10;0.00;;;;;;;15.10;100.00;100269.38;5040569;28;20040;-44
2023/08/25 06:50:33;;;;;;;2.40;0.00;;;;;;;15.20;100.00;100281.16;5041452;28;20021;-48
2023/08/25 06:52:59;;;;;;;2.97;0.00;;;;;;;15.36;100.00;100281.56;5034490;28;20482;-43
2023/08/25 06:55:25;;;;;;;0.13;0.00;;;;;;;15.43;100.00;100288.44;5037457;28;20150;-46
2023/08/25 06:57:51;;;;;;;2.05;0.25;;;;;;;15.60;100.00;100277.13;5034306;28;20033;-45
2023/08/25 07:00:20;;;;;;;1.10;0.00;;;;;;;15.64;100.00;100288.97;5034331;28;20509;-47
2023/08/25 07:02:45;;;;;;;2.25;0.13;;;;;;;15.74;100.00;100275.09;5029125;28;20536;-47
2023/08/25 07:05:13;;;;;;;1.13;0.20;;;;;;;15.85;100.00;100280.47;5037503;28;20291;-43
2023/08/25 07:07:38;;;;;;;0.10;0.00;;;;;;;16.16;100.00;100277.66;5041619;28;20024;-48
2023/08/25 07:10:04;;;;;;;0.30;0.00;;;;;;;16.42;100.00;100268.34;5041136;28;20036;-46
2023/08/25 07:12:30;;;;;;;2.58;0.00;;;;;;;16.58;100.00;100262.28;5036175;28;20099;-44
2023/08/25 07:14:55;;;;;;;1.88;0.15;;;;;;;16.76;100.00;100266.69;5034455;28;20037;-48
2023/08/25 07:17:20;;;;;;;2.03;0.10;;;;;;;17.04;100.00;100260.56;5037209;28;20066;-45
2023/08/25 07:19:46;;;;;;;4.57;0.20;;;;;;;17.34;100.00;100262.97;5034157;28;20078;-44
2023/08/25 07:22:11;;;;;;;2.60;0.10;;;;;;;17.75;100.00;100266.34;5039670;28;20029;-44
2023/08/25 07:24:36;;;;;;;4.13;1.33;;;;;;;18.15;100.00;100248.47;5034277;28;20036;-43
2023/08/25 07:27:02;;;;;;;1.33;0.20;;;;;;;18.35;100.00;100254.13;5031058;28;20400;-44
2023/08/25 07:29:27;;;;;;;0.65;0.00;;;;;;;18.66;100.00;100254.50;5033258;28;20024;-45
2023/08/25 07:31:52;;;;;;;0.45;0.17;;;;;;;18.80;100.00;100261.19;5027577;28;20033;-48
2023/08/25 07:34:18;;;;;;;3.25;0.10;;;;;;;18.81;100.00;100270.03;5035476;28;20060;-44
2023/08/25 07:36:43;;;;;;;2.03;0.00;;;;;;;18.85;100.00;100280.03;5034947;28;20033;-44
2023/08/25 07:39:09;;;;;;;3.90;0.05;;;;;;;18.89;100.00;100272.28;5027987;28;20167;-50
2023/08/25 07:41:34;;;;;;;3.03;0.10;;;;;;;18.96;100.00;100273.72;5031097;28;20135;-47
2023/08/25 07:43:59;;;;;;;0.08;0.00;;;;;;;19.06;100.00;100269.53;5036853;28;20414;-44
2023/08/25 07:46:25;;;;;;;0.85;0.10;;;;;;;19.12;100.00;100281.94;5031863;28;20106;-44
2023/08/25 07:48:50;;;;;;;0.52;0.05;;;;;;;19.17;100.00;100296.25;5033365;28;20082;-45
2023/08/25 07:51:16;;;;;;;1.23;0.25;;;;;;;19.26;100.00;100303.84;5038742;28;20104;-47
2023/08/25 07:53:42;;;;;;;1.08;0.35;;;;;;;19.31;100.00;100293.16;5039419;28;20494;-46
2023/08/25 07:56:07;;;;;;;2.67;0.15;;;;;;;19.45;100.00;100294.38;5033977;28;20028;-46
2023/08/25 07:58:33;;;;;;;2.25;0.10;;;;;;;19.21;100.00;100279.63;5036124;28;20154;-45
2023/08/25 08:00:58;;;;;;;0.28;0.00;;;;;;;19.49;100.00;100273.16;5032981;28;20565;-44
2023/08/25 08:03:23;;;;;;;0.00;0.00;;;;;;;19.64;100.00;100254.47;5036454;28;20295;-49
2023/08/25 08:05:49;;;;;;;2.63;0.35;;;;;;;19.63;100.00;100250.16;5035297;28;20531;-47
2023/08/25 08:08:14;;;;;;;6.63;0.00;;;;;;;18.98;100.00;100235.84;5038430;28;20504;-47
2023/08/25 08:10:40;;;;;;;1.45;0.00;;;;;;;19.38;100.00;100234.63;5031757;28;20624;-47
2023/08/25 08:13:06;;;;;;;0.10;0.00;;;;;;;19.49;100.00;100232.84;5033468;28;20041;-46
2023/08/25 08:15:31;;;;;;;1.08;0.10;;;;;;;19.49;100.00;100238.22;5042707;28;20032;-45
2023/08/25 08:17:58;;;;;;;0.85;0.00;;;;;;;19.76;100.00;100263.22;5027776;28;20025;-46
2023/08/25 08:20:24;;;;;;;5.15;2.13;;;;;;;19.66;100.00;100267.69;5036542;28;20106;-49
2023/08/25 08:22:50;;;;;;;5.00;1.27;;;;;;;19.56;100.00;100271.09;5039812;28;20052;-48
2023/08/25 08:25:15;;;;;;;8.70;1.17;;;;;;;19.54;100.00;100282.09;5039059;28;20487;-47
2023/08/25 08:27:42;;;;;;;2.08;0.55;;;;;;;19.56;100.00;100271.88;5033773;28;20036;-46
2023/08/25 08:30:08;;;;;;;3.83;0.38;;;;;;;19.44;100.00;100262.34;5038282;28;20041;-46
2023/08/25 08:32:34;;;;;;;10.50;4.03;;;;;;;19.36;100.00;100253.72;5032645;28;20029;-44
2023/08/25 08:35:00;;;;;;;1.17;0.35;;;;;;;19.46;100.00;100254.84;5035682;28;20033;-44
2023/08/25 08:37:25;;;;;;;2.53;0.40;;;;;;;19.78;100.00;100255.72;5032856;28;20560;-44
2023/08/25 08:39:51;;;;;;;1.85;0.30;;;;;;;19.94;100.00;100261.19;5031531;28;20040;-48
2023/08/25 08:42:17;;;;;;;5.13;0.28;;;;;;;20.10;100.00;100254.03;5033143;28;20403;-45
2023/08/25 08:44:47;;;;;;;2.25;0.00;;;;;;;20.19;100.00;100261.38;5034844;28;20033;-43
2023/08/25 08:47:14;;;;;;;0.55;0.15;;;;;;;20.09;100.00;100265.88;5028011;28;20137;-46
2023/08/25 08:49:40;;;;;;;0.03;0.00;;;;;;;20.36;100.00;100266.56;5033131;28;20025;-46
2023/08/25 08:52:07;;;;;;;2.55;1.02;;;;;;;20.20;100.00;100259.47;5035061;28;20085;-50
2023/08/25 08:54:36;;;;;;;1.55;0.57;;;;;;;19.95;100.00;100255.53;5032826;28;20112;-50
2023/08/25 08:57:03;;;;;;;1.00;0.32;;;;;;;20.09;100.00;100250.53;5035911;28;20468;-47
2023/08/25 08:59:29;;;;;;;1.08;0.00;;;;;;;20.32;100.00;100245.84;5040428;28;20032;-45
2023/08/25 09:01:57;;;;;;;0.25;0.00;;;;;;;20.43;100.00;100245.59;5031842;28;20045;-44
2023/08/25 09:04:23;;;;;;;1.55;0.22;;;;;;;20.33;100.00;100225.91;5038050;28;20493;-49
2023/08/25 09:06:51;;;;;;;2.38;0.32;;;;;;;20.40;100.00;100229.97;5032478;28;20388;-45
2023/08/25 09:09:19;;;;;;;0.13;0.03;;;;;;;20.41;100.00;100222.72;5036925;28;20033;-44
2023/08/25 09:11:45;;;;;;;0.00;0.00;;;;;;;20.52;100.00;100232.44;5034430;28;20057;-46
2023/08/25 09:14:10;;;;;;;1.92;0.10;;;;;;;20.54;100.00;100233.03;5035813;28;20025;-44
2023/08/25 09:16:36;;;;;;;0.10;0.00;;;;;;;20.69;100.00;100225.00;5038935;28;20037;-44
2023/08/25 09:19:05;;;;;;;0.57;0.47;;;;;;;20.82;100.00;100231.78;5031057;28;20494;-48
2023/08/25 09:21:31;;;;;;;5.00;0.00;;;;;;;20.93;100.00;100229.91;5031998;28;20036;-47
2023/08/25 09:24:01;;;;;;;1.75;0.00;;;;;;;20.92;100.00;100239.91;5032047;28;20021;-44
2023/08/25 09:26:28;;;;;;;0.10;0.00;;;;;;;20.84;100.00;100236.91;5039459;28;20025;-44
2023/08/25 09:28:58;;;;;;;0.30;0.00;;;;;;;20.70;100.00;100236.59;5035144;28;20028;-49
2023/08/25 09:31:25;;;;;;;0.60;0.00;;;;;;;20.87;100.00;100239.88;5043232;28;20478;-47
2023/08/25 09:33:52;;;;;;;0.63;0.00;;;;;;;20.99;100.00;100239.66;5040555;28;20111;-46
2023/08/25 09:36:18;;;;;;;1.00;0.28;;;;;;;20.99;100.00;100247.75;5027123;28;20028;-46
2023/08/25 09:38:46;;;;;;;0.13;0.05;;;;;;;20.84;98.32;100250.41;5025381;28;20048;-48
2023/08/25 09:41:11;;;;;;;1.65;0.00;;;;;;;20.81;97.99;100253.63;5032799;28;20616;-44
2023/08/25 09:43:38;;;;;;;1.00;0.00;;;;;;;20.73;98.08;100259.50;5020659;28;20112;-46
2023/08/25 09:46:08;;;;;;;1.95;0.20;;;;;;;20.73;99.63;100248.72;5031200;28;20547;-44
2023/08/25 09:48:34;;;;;;;0.10;0.00;;;;;;;20.67;96.38;100251.38;5032654;28;20028;-46
2023/08/25 09:51:00;;;;;;;4.05;0.70;;;;;;;20.79;97.15;100253.06;5026171;28;20165;-50
2023/08/25 09:53:28;;;;;;;0.38;0.00;;;;;;;20.92;97.19;100252.56;5035287;28;20067;-45
2023/08/25 09:56:01;;;;;;;3.08;0.45;;;;;;;20.75;95.70;100250.06;5033453;28;20032;-47
2023/08/25 09:58:28;;;;;;;0.10;0.00;;;;;;;20.91;97.20;100253.66;5029725;28;20029;-45
2023/08/25 10:00:54;;;;;;;0.00;0.00;;;;;;;20.93;97.49;100259.56;5028808;28;20048;-45
2023/08/25 10:03:20;;;;;;;2.65;0.03;;;;;;;20.76;96.53;100253.59;5016028;28;20101;-47
2023/08/25 10:05:46;;;;;;;1.92;0.10;;;;;;;20.74;95.30;100255.75;5030074;28;20127;-46
2023/08/25 10:08:11;;;;;;;0.25;0.00;;;;;;;20.91;96.71;100250.97;5027011;28;20107;-48
2023/08/25 10:10:38;;;;;;;0.95;0.68;;;;;;;21.08;94.81;100256.91;5034245;28;20393;-47
2023/08/25 10:13:04;;;;;;;1.75;0.00;;;;;;;21.10;96.46;100260.16;5034911;28;21673;-44
2023/08/25 10:15:32;;;;;;;0.52;0.00;;;;;;;21.03;96.25;100258.78;5027231;28;20037;-43
2023/08/25 10:18:01;;;;;;;0.65;0.10;;;;;;;20.89;96.59;100269.28;5030364;28;20489;-45
2023/08/25 10:20:29;;;;;;;2.42;0.10;;;;;;;20.99;97.42;100263.91;5030515;28;20449;-47
2023/08/25 10:22:56;;;;;;;3.40;0.00;;;;;;;20.93;97.09;100256.88;5027923;28;20029;-46
2023/08/25 10:25:27;;;;;;;0.38;0.00;;;;;;;20.80;96.11;100263.56;5032281;28;20513;-47
2023/08/25 10:27:53;;;;;;;1.00;0.00;;;;;;;20.92;94.82;100250.69;5029108;28;20483;-44
2023/08/25 10:30:19;;;;;;;3.47;0.10;;;;;;;21.12;95.52;100255.31;5032014;28;20343;-46
2023/08/25 10:32:49;;;;;;;6.32;1.13;;;;;;;21.44;96.25;100242.72;5030339;28;20029;-44
2023/08/25 10:35:14;;;;;;;0.10;0.00;;;;;;;21.98;95.12;100242.16;5028432;28;20083;-45
2023/08/25 10:37:39;;;;;;;5.40;0.00;;;;;;;22.45;92.76;100235.56;5031755;28;20025;-45
2023/08/25 10:40:10;;;;;;;0.25;0.00;;;;;;;22.83;90.66;100230.53;5027352;28;20068;-49
2023/08/25 10:42:35;;;;;;;0.60;0.57;;;;;;;23.23;90.66;100232.22;5033689;28;20029;-47
2023/08/25 10:45:04;;;;;;;0.10;0.00;;;;;;;23.39;87.38;100223.97;5031097;28;20059;-44
2023/08/25 10:47:30;;;;;;;4.32;0.20;;;;;;;23.73;86.96;100235.63;5032966;28;20025;-46
2023/08/25 10:50:00;;;;;;;1.10;0.00;;;;;;;24.10;86.35;100227.97;5026227;28;20437;-46
2023/08/25 10:52:25;;;;;;;2.30;0.30;;;;;;;24.58;85.99;100223.38;5033515;28;20034;-48
2023/08/25 10:54:52;;;;;;;1.25;0.10;;;;;;;24.90;84.60;100224.56;5028820;28;20527;-50
2023/08/25 10:57:27;;;;;;;1.55;0.05;;;;;;;24.33;78.04;100239.91;5034457;28;20043;-48
2023/08/25 10:59:56;;;;;;;0.85;0.00;;;;;;;23.71;80.24;100239.69;5025995;28;20044;-47
2023/08/25 11:02:35;;;;;;;1.10;0.15;;;;;;;23.54;77.02;100234.69;5031788;28;20148;-49
2023/08/25 11:05:34;;;;;;;3.30;0.17;;;;;;;23.71;79.34;100224.25;5025835;28;20112;-48
2023/08/25 11:08:04;;;;;;;2.15;0.40;;;;;;;23.99;78.01;100216.44;5035941;28;20037;-47
2023/08/25 11:10:34;;;;;;;1.38;0.00;;;;;;;24.39;77.01;100208.94;5033171;28;20032;-45
2023/08/25 11:13:00;;;;;;;0.85;0.00;;;;;;;24.89;75.84;100214.03;5033091;28;20430;-48
2023/08/25 11:15:27;;;;;;;0.22;0.00;;;;;;;25.15;73.09;100214.47;5032980;28;20157;-45